Time;durP1;ratioP1;P1;durP2;ratioP2;P2;SDS_P1;SDS_P2;PMS_P1;PMS_P2;Temp;Humidity;BMP_temperature;BMP_pressure;BME280_temperature;BME280_humidity;BME280_pressure;Samples;Min_cycle;Max_cycle;Signal;HPM_P1;HPM_P2
2022/08/26 00:01:31;;;;;;;99.20;66.05;;;19.70;99.90;;;;;;5043091;28;20033;-68
2022/08/26 00:03:57;;;;;;;99.90;67.65;;;19.70;99.90;;;;;;5047927;28;20041;-68
2022/08/26 00:06:24;;;;;;;93.60;63.28;;;19.80;99.90;;;;;;5043628;28;20052;-68
2022/08/26 00:08:50;;;;;;;101.72;68.82;;;19.60;99.90;;;;;;5042831;28;20037;-68
2022/08/26 00:11:17;;;;;;;105.18;66.93;;;19.80;99.90;;;;;;5044756;28;20039;-67
2022/08/26 00:13:43;;;;;;;109.93;67.75;;;19.70;99.90;;;;;;5044802;28;20048;-67
2022/08/26 00:16:09;;;;;;;105.07;65.00;;;19.80;99.90;;;;;;5048135;28;20049;-67
2022/08/26 00:18:35;;;;;;;86.45;56.45;;;19.60;99.90;;;;;;5063144;28;20126;-67
2022/08/26 00:21:01;;;;;;;88.90;58.08;;;19.80;99.90;;;;;;5049166;28;20029;-67
2022/08/26 00:23:27;;;;;;;90.15;57.42;;;19.80;99.90;;;;;;5048702;28;20052;-68
2022/08/26 00:25:53;;;;;;;84.78;55.25;;;19.90;99.90;;;;;;5046652;28;20028;-67
2022/08/26 00:28:19;;;;;;;87.15;56.95;;;20.00;99.90;;;;;;5047605;28;20045;-67
2022/08/26 00:30:48;;;;;;;79.93;52.95;;;19.80;99.90;;;;;;5048053;28;20075;-69
2022/08/26 00:33:19;;;;;;;78.68;47.10;;;20.00;99.90;;;;;;5047120;28;20480;-68
2022/08/26 00:35:46;;;;;;;76.63;48.90;;;20.00;99.90;;;;;;5046522;28;20128;-68
2022/08/26 00:38:12;;;;;;;70.90;44.78;;;19.90;99.90;;;;;;5046606;28;20047;-67
2022/08/26 00:40:44;;;;;;;68.18;43.30;;;20.00;99.90;;;;;;5048575;28;20140;-67
2022/08/26 00:43:11;;;;;;;63.15;44.88;;;20.10;99.90;;;;;;5049449;28;20067;-67
2022/08/26 00:45:51;;;;;;;64.60;41.13;;;20.10;99.90;;;;;;5045132;28;20441;-68
2022/08/26 00:48:21;;;;;;;65.15;38.30;;;20.20;99.90;;;;;;5046852;28;20041;-68
2022/08/26 00:50:57;;;;;;;61.08;38.60;;;20.10;99.90;;;;;;5047532;28;20033;-68
2022/08/26 00:53:28;;;;;;;62.17;36.92;;;20.20;99.90;;;;;;5028454;28;20372;-67
2022/08/26 00:56:00;;;;;;;64.33;37.60;;;20.10;99.90;;;;;;5061686;28;20040;-67
2022/08/26 00:58:28;;;;;;;;;;;20.30;99.90;;;;;;5044145;28;20651;-68
2022/08/26 01:00:53;;;;;;;59.13;37.72;;;20.30;99.90;;;;;;5047292;28;19924;-67
2022/08/26 01:03:23;;;;;;;56.15;35.42;;;20.30;99.90;;;;;;5045045;28;20037;-68
2022/08/26 01:05:51;;;;;;;55.55;35.53;;;20.30;99.90;;;;;;5044550;28;20439;-68
2022/08/26 01:08:17;;;;;;;56.47;36.78;;;20.20;99.90;;;;;;5048020;28;20049;-67
2022/08/26 01:10:43;;;;;;;47.97;28.50;;;20.30;99.90;;;;;;5045638;28;20187;-69
2022/08/26 01:13:10;;;;;;;54.00;35.83;;;20.40;99.90;;;;;;5044718;28;20045;-68
2022/08/26 01:15:43;;;;;;;50.92;34.20;;;20.40;99.90;;;;;;5039721;28;20045;-67
2022/08/26 01:18:10;;;;;;;55.10;33.25;;;20.30;99.90;;;;;;5044738;28;20082;-67
2022/08/26 01:20:45;;;;;;;51.10;34.70;;;20.30;99.90;;;;;;5044905;28;20041;-67
2022/08/26 01:23:11;;;;;;;50.50;31.63;;;20.10;99.90;;;;;;5045248;28;20048;-67
2022/08/26 01:25:40;;;;;;;47.28;30.48;;;20.10;99.90;;;;;;5045955;28;20055;-67
2022/08/26 01:28:12;;;;;;;50.50;31.00;;;20.30;99.90;;;;;;5043899;28;20041;-68
2022/08/26 01:30:40;;;;;;;47.03;30.60;;;20.30;99.90;;;;;;5047248;28;20433;-68
2022/08/26 01:33:11;;;;;;;44.17;27.92;;;20.10;99.90;;;;;;5044723;28;20047;-68
2022/08/26 01:35:37;;;;;;;46.83;28.80;;;20.20;99.90;;;;;;5044588;28;20504;-68
2022/08/26 01:38:03;;;;;;;37.88;23.23;;;20.30;99.90;;;;;;5041400;28;20325;-69
2022/08/26 01:40:32;;;;;;;43.22;26.45;;;20.30;99.90;;;;;;5044965;28;20404;-68
2022/08/26 01:43:01;;;;;;;39.40;23.33;;;20.20;99.90;;;;;;5039518;28;20468;-68
2022/08/26 01:45:30;;;;;;;29.48;18.88;;;20.30;99.90;;;;;;5036935;28;20041;-68
2022/08/26 01:47:58;;;;;;;39.22;27.33;;;20.20;99.90;;;;;;5042171;28;20555;-67
2022/08/26 01:50:30;;;;;;;36.67;22.77;;;20.20;99.90;;;;;;5038321;28;20041;-68
2022/08/26 01:52:59;;;;;;;37.50;24.98;;;20.20;99.90;;;;;;5034600;28;20045;-68
2022/08/26 01:55:27;;;;;;;36.30;24.42;;;20.10;99.90;;;;;;5037529;28;20437;-67
2022/08/26 01:57:55;;;;;;;38.60;24.17;;;20.20;99.90;;;;;;5037240;28;20125;-69
2022/08/26 02:00:23;;;;;;;34.92;22.40;;;20.10;99.90;;;;;;5039455;28;20053;-70
2022/08/26 02:03:15;;;;;;;25.90;16.30;;;20.10;99.90;;;;;;5038078;28;20041;-68
2022/08/26 02:05:39;;;;;;;36.28;20.48;;;20.10;99.90;;;;;;5039874;28;20057;-69
2022/08/26 02:08:05;;;;;;;21.27;14.65;;;20.10;99.90;;;;;;5035811;28;20048;-69
2022/08/26 02:10:31;;;;;;;25.33;12.82;;;20.00;99.90;;;;;;5033211;28;20051;-69
2022/08/26 02:12:56;;;;;;;31.20;16.00;;;20.20;99.90;;;;;;5039837;28;20037;-68
2022/08/26 02:15:22;;;;;;;24.17;16.23;;;20.00;99.90;;;;;;5040961;28;20044;-68
2022/08/26 02:17:48;;;;;;;23.45;13.35;;;20.10;99.90;;;;;;5042980;28;20083;-69
2022/08/26 02:20:18;;;;;;;30.33;16.13;;;20.00;99.90;;;;;;5054557;28;20033;-70
2022/08/26 02:22:44;;;;;;;26.98;14.10;;;20.10;99.90;;;;;;5035915;28;20037;-70
2022/08/26 02:25:48;;;;;;;23.30;13.93;;;20.00;99.90;;;;;;5039713;28;20041;-68
2022/08/26 02:28:14;;;;;;;32.88;16.55;;;20.00;99.90;;;;;;5050886;28;20452;-70
2022/08/26 02:30:40;;;;;;;27.73;16.90;;;20.10;99.90;;;;;;5035592;28;20041;-68
2022/08/26 02:33:06;;;;;;;28.77;14.93;;;20.10;99.90;;;;;;5031925;28;20048;-69
2022/08/26 02:35:33;;;;;;;22.25;14.40;;;20.00;99.90;;;;;;5038704;28;20068;-68
2022/08/26 02:37:59;;;;;;;21.35;13.98;;;20.10;99.90;;;;;;5037073;28;20534;-69
2022/08/26 02:40:29;;;;;;;27.50;16.20;;;20.10;99.90;;;;;;5037974;28;20036;-68
2022/08/26 02:42:55;;;;;;;23.92;17.23;;;20.10;99.90;;;;;;5034759;28;20037;-69
2022/08/26 02:45:21;;;;;;;26.58;16.15;;;20.00;99.90;;;;;;5034924;28;20026;-69
2022/08/26 02:47:48;;;;;;;22.52;16.00;;;20.00;99.90;;;;;;5038082;28;20052;-68
2022/08/26 02:50:14;;;;;;;28.40;16.80;;;20.10;99.90;;;;;;5042375;28;20033;-67
2022/08/26 02:52:40;;;;;;;23.17;14.30;;;20.00;99.90;;;;;;5042533;28;20048;-69
2022/08/26 02:55:06;;;;;;;23.45;13.38;;;20.00;99.90;;;;;;5041619;28;20070;-69
2022/08/26 02:57:32;;;;;;;20.27;14.00;;;20.00;99.90;;;;;;5055093;28;20127;-68
2022/08/26 02:59:59;;;;;;;22.88;14.75;;;20.00;99.90;;;;;;5038733;28;20198;-70
2022/08/26 03:02:27;;;;;;;29.42;14.57;;;19.90;99.90;;;;;;5037315;28;20833;-68
2022/08/26 03:04:52;;;;;;;25.48;15.15;;;19.80;99.90;;;;;;5034993;28;20048;-68
2022/08/26 03:07:19;;;;;;;22.55;14.27;;;19.70;99.90;;;;;;5040542;28;20033;-68
2022/08/26 03:09:44;;;;;;;21.92;14.30;;;19.70;99.90;;;;;;5038141;28;20391;-68
2022/08/26 03:12:10;;;;;;;26.80;14.13;;;19.70;99.90;;;;;;5037508;28;20045;-68
2022/08/26 03:14:36;;;;;;;23.83;13.48;;;19.60;99.90;;;;;;5037266;28;20074;-69
2022/08/26 03:17:03;;;;;;;21.52;11.90;;;19.70;99.90;;;;;;5055394;28;20132;-69
2022/08/26 03:19:30;;;;;;;25.77;10.93;;;19.70;99.90;;;;;;5034248;28;20391;-69
2022/08/26 03:21:57;;;;;;;20.90;11.77;;;19.80;99.90;;;;;;5039362;28;20514;-69
2022/08/26 03:24:24;;;;;;;24.08;11.43;;;19.80;99.90;;;;;;5041526;28;20128;-68
2022/08/26 03:26:50;;;;;;;20.45;9.57;;;19.70;99.90;;;;;;5053142;28;20372;-69
2022/08/26 03:32:00;;;;;;;13.13;8.50;;;19.80;99.90;;;;;;5042767;28;20047;-69
2022/08/26 03:34:26;;;;;;;12.40;6.90;;;19.80;99.90;;;;;;5033915;28;20053;-70
2022/08/26 03:36:52;;;;;;;13.45;6.70;;;19.70;99.90;;;;;;5037415;28;20111;-67
2022/08/26 03:39:17;;;;;;;15.95;7.38;;;19.80;99.90;;;;;;5034661;28;20471;-70
2022/08/26 03:41:46;;;;;;;14.23;7.15;;;19.80;99.90;;;;;;5030427;28;20041;-69
2022/08/26 03:44:12;;;;;;;17.73;6.65;;;19.70;99.90;;;;;;5039153;28;20033;-68
2022/08/26 03:46:38;;;;;;;15.48;6.53;;;19.70;99.90;;;;;;5047432;28;20045;-70
2022/08/26 03:49:04;;;;;;;13.82;5.57;;;19.70;99.90;;;;;;5028716;28;20383;-69
2022/08/26 03:51:31;;;;;;;12.95;5.53;;;19.80;99.90;;;;;;5034794;28;20039;-68
2022/08/26 03:53:57;;;;;;;16.08;6.97;;;19.90;99.90;;;;;;5044108;28;20372;-69
2022/08/26 03:56:23;;;;;;;14.23;6.45;;;19.70;99.90;;;;;;5042840;28;20040;-70
2022/08/26 03:58:49;;;;;;;14.90;6.78;;;19.70;99.90;;;;;;5039612;28;20052;-67
2022/08/26 04:01:15;;;;;;;12.88;6.00;;;19.70;99.90;;;;;;5040666;28;20060;-68
2022/08/26 04:03:58;;;;;;;15.45;6.05;;;19.70;99.90;;;;;;5041586;28;20137;-69
2022/08/26 04:06:32;;;;;;;14.82;6.07;;;19.80;99.90;;;;;;5041547;28;20047;-69
2022/08/26 04:09:00;;;;;;;13.32;5.57;;;19.80;99.90;;;;;;5041071;28;20037;-69
2022/08/26 04:11:30;;;;;;;11.23;5.30;;;19.60;99.90;;;;;;5043429;28;20511;-69
2022/08/26 04:13:58;;;;;;;10.50;5.15;;;19.70;99.90;;;;;;5056810;28;20155;-70
2022/08/26 04:16:25;;;;;;;13.95;5.65;;;19.70;99.90;;;;;;5037909;28;20036;-68
2022/08/26 04:18:51;;;;;;;13.63;4.53;;;19.80;99.90;;;;;;5042992;28;20080;-68
2022/08/26 04:21:16;;;;;;;11.82;4.32;;;19.60;99.90;;;;;;5043210;28;20072;-68
2022/08/26 04:23:42;;;;;;;13.75;4.25;;;19.80;99.90;;;;;;5041214;28;20036;-69
2022/08/26 04:26:07;;;;;;;16.40;5.10;;;19.70;99.90;;;;;;5039853;28;20033;-68
2022/08/26 04:28:33;;;;;;;10.75;4.55;;;19.80;99.90;;;;;;5038543;28;20467;-68
2022/08/26 04:30:59;;;;;;;14.07;5.20;;;19.80;99.90;;;;;;5042180;28;20037;-70
2022/08/26 04:33:24;;;;;;;14.32;4.95;;;19.70;99.90;;;;;;5037163;28;20132;-70
2022/08/26 04:35:58;;;;;;;12.50;5.00;;;19.70;99.90;;;;;;5054196;28;20099;-68
2022/08/26 04:38:24;;;;;;;10.13;4.88;;;19.70;99.90;;;;;;5043944;28;20419;-69
2022/08/26 04:40:49;;;;;;;15.85;5.25;;;19.70;99.90;;;;;;5064491;28;20107;-69
2022/08/26 04:43:15;;;;;;;16.00;6.13;;;19.60;99.90;;;;;;5045159;28;20049;-69
2022/08/26 04:45:42;;;;;;;12.43;5.43;;;19.70;99.90;;;;;;5045248;28;20076;-68
2022/08/26 04:48:08;;;;;;;11.57;5.70;;;19.70;99.90;;;;;;5048976;28;20029;-68
2022/08/26 04:50:33;;;;;;;15.45;5.80;;;19.60;99.90;;;;;;5048082;28;20040;-68
2022/08/26 04:52:59;;;;;;;16.15;5.10;;;19.70;99.90;;;;;;5052185;28;20183;-69
2022/08/26 04:55:25;;;;;;;14.35;5.90;;;19.60;99.90;;;;;;5036669;28;20464;-68
2022/08/26 04:57:52;;;;;;;15.77;5.93;;;19.60;99.90;;;;;;5040543;28;20033;-69
2022/08/26 05:00:18;;;;;;;15.88;6.40;;;19.70;99.90;;;;;;5041077;28;20541;-69
2022/08/26 05:02:44;;;;;;;14.05;5.47;;;19.70;99.90;;;;;;5041417;28;20072;-69
2022/08/26 05:05:12;;;;;;;17.25;5.85;;;19.70;99.90;;;;;;5041940;28;20510;-69
2022/08/26 05:07:38;;;;;;;15.95;6.05;;;19.60;99.90;;;;;;5058728;28;20049;-69
2022/08/26 05:10:05;;;;;;;12.00;5.85;;;19.80;99.90;;;;;;5041170;28;20087;-68
2022/08/26 05:12:31;;;;;;;16.27;6.55;;;19.70;99.90;;;;;;5038660;28;20149;-69
2022/08/26 05:14:56;;;;;;;14.10;6.15;;;19.70;99.90;;;;;;5039890;28;20128;-68
2022/08/26 05:17:22;;;;;;;16.85;6.63;;;19.70;99.90;;;;;;5056583;28;20057;-67
2022/08/26 05:19:49;;;;;;;17.13;6.25;;;19.90;99.90;;;;;;5043388;28;20033;-68
2022/08/26 05:22:16;;;;;;;14.85;6.35;;;19.90;99.90;;;;;;5051981;28;20052;-68
2022/08/26 05:24:42;;;;;;;14.68;6.28;;;20.00;99.90;;;;;;5035776;28;20041;-69
2022/08/26 05:27:07;;;;;;;15.88;6.43;;;20.00;99.90;;;;;;5046784;28;20029;-69
2022/08/26 05:29:33;;;;;;;16.45;6.63;;;20.00;99.90;;;;;;5045429;28;20060;-69
2022/08/26 05:32:00;;;;;;;17.98;6.45;;;20.10;99.90;;;;;;5041945;28;20064;-70
2022/08/26 05:34:26;;;;;;;15.45;6.00;;;20.10;99.90;;;;;;5039738;28;20468;-69
2022/08/26 05:36:52;;;;;;;14.43;5.93;;;20.00;99.90;;;;;;5041180;28;20076;-69
2022/08/26 05:39:18;;;;;;;14.38;5.75;;;20.10;99.90;;;;;;5038897;28;20546;-69
2022/08/26 05:41:44;;;;;;;17.40;5.93;;;20.20;99.90;;;;;;5039651;28;20068;-69
2022/08/26 05:44:12;;;;;;;16.85;5.95;;;20.20;99.90;;;;;;5047416;28;20123;-69
2022/08/26 05:46:39;;;;;;;16.88;5.32;;;20.20;99.90;;;;;;5044933;28;20191;-69
2022/08/26 05:49:06;;;;;;;20.83;5.55;;;20.20;99.90;;;;;;5045617;28;20404;-69
2022/08/26 05:51:33;;;;;;;18.45;4.80;;;20.20;99.90;;;;;;5052453;28;20032;-68
2022/08/26 05:54:01;;;;;;;17.25;5.40;;;20.10;99.90;;;;;;5050317;28;20044;-69
2022/08/26 05:56:27;;;;;;;15.23;4.85;;;20.10;99.90;;;;;;5046334;28;20033;-69
2022/08/26 05:58:54;;;;;;;13.52;5.13;;;20.10;99.90;;;;;;5046486;28;20144;-68
2022/08/26 06:01:26;;;;;;;12.32;4.55;;;20.20;99.90;;;;;;5044081;28;20037;-69
2022/08/26 06:03:58;;;;;;;16.80;4.72;;;20.20;99.90;;;;;;5045578;28;20045;-68
2022/08/26 06:06:27;;;;;;;15.13;4.60;;;20.00;99.90;;;;;;5044326;28;20039;-69
2022/08/26 06:08:53;;;;;;;20.08;4.70;;;20.10;99.90;;;;;;5046015;28;20045;-69
2022/08/26 06:11:24;;;;;;;14.27;4.13;;;20.00;99.90;;;;;;5041081;28;20095;-69
2022/08/26 06:13:52;;;;;;;17.95;4.18;;;20.10;99.90;;;;;;5044885;28;20037;-68
2022/08/26 06:16:20;;;;;;;14.57;4.10;;;20.00;99.90;;;;;;5045377;28;20124;-68
2022/08/26 06:18:47;;;;;;;13.77;3.80;;;20.00;99.90;;;;;;5033230;28;20407;-69
2022/08/26 06:21:20;;;;;;;16.13;3.90;;;20.00;99.90;;;;;;5048399;28;20040;-69
2022/08/26 06:26:34;;;;;;;12.60;3.92;;;20.00;99.90;;;;;;5046304;28;20098;-68
2022/08/26 06:29:00;;;;;;;13.30;3.67;;;20.00;99.90;;;;;;5045904;28;20088;-69
2022/08/26 06:31:26;;;;;;;13.93;3.55;;;20.00;99.90;;;;;;5045634;28;20098;-69
2022/08/26 06:33:52;;;;;;;12.95;3.45;;;20.00;99.90;;;;;;5043699;28;20128;-70
2022/08/26 06:36:24;;;;;;;11.10;3.20;;;20.20;99.90;;;;;;5046347;28;20067;-69
2022/08/26 06:38:51;;;;;;;;;;;20.30;99.90;;;;;;5041607;28;20041;-69
2022/08/26 06:41:19;;;;;;;18.70;4.15;;;20.20;99.90;;;;;;5046666;28;19920;-69
2022/08/26 06:43:45;;;;;;;14.55;4.07;;;20.20;99.90;;;;;;5041680;28;20040;-69
2022/08/26 06:46:13;;;;;;;12.88;3.80;;;20.20;99.90;;;;;;5046119;28;20044;-68
2022/08/26 06:48:39;;;;;;;13.40;4.05;;;20.20;99.90;;;;;;5045690;28;20073;-68
2022/08/26 06:51:10;;;;;;;10.75;3.65;;;20.20;99.90;;;;;;5045603;28;20065;-68
2022/08/26 06:53:37;;;;;;;12.65;3.85;;;20.20;99.90;;;;;;5047194;28;20077;-68
2022/08/26 06:56:05;;;;;;;12.02;3.03;;;20.20;99.90;;;;;;5039191;28;20047;-69
2022/08/26 06:58:32;;;;;;;15.93;3.50;;;20.20;99.90;;;;;;5045060;28;20080;-68
2022/08/26 07:00:58;;;;;;;14.80;3.40;;;20.20;99.90;;;;;;5044875;28;20041;-69
2022/08/26 07:03:23;;;;;;;12.85;3.13;;;20.20;99.90;;;;;;5042761;28;20035;-69
2022/08/26 07:05:49;;;;;;;19.67;3.28;;;20.10;99.90;;;;;;5045613;28;20041;-69
2022/08/26 07:08:15;;;;;;;9.40;3.63;;;20.10;99.90;;;;;;5062028;28;20045;-69
2022/08/26 07:10:41;;;;;;;11.80;3.22;;;20.20;99.90;;;;;;5041339;28;20049;-70
2022/08/26 07:13:08;;;;;;;9.13;3.90;;;20.20;99.90;;;;;;5033379;28;20083;-67
2022/08/26 07:15:34;;;;;;;13.13;3.20;;;20.00;99.90;;;;;;5040565;28;20131;-69
2022/08/26 07:18:01;;;;;;;14.02;3.70;;;20.10;99.90;;;;;;5030076;28;20438;-69
2022/08/26 07:20:27;;;;;;;10.65;2.88;;;19.90;99.90;;;;;;5044861;28;20044;-69
2022/08/26 07:22:53;;;;;;;12.57;2.38;;;20.00;99.90;;;;;;5026669;28;20040;-70
2022/08/26 07:25:19;;;;;;;13.75;3.47;;;20.10;99.90;;;;;;5060620;28;20041;-68
2022/08/26 07:27:45;;;;;;;11.45;3.30;;;20.10;99.90;;;;;;5041390;28;20041;-68
2022/08/26 07:30:11;;;;;;;12.13;3.28;;;20.00;99.90;;;;;;5059513;28;20057;-69
2022/08/26 07:32:37;;;;;;;11.98;2.92;;;20.10;99.90;;;;;;5060609;28;20045;-67
2022/08/26 07:35:05;;;;;;;10.07;3.00;;;20.10;99.90;;;;;;5045002;28;20051;-70
2022/08/26 07:37:30;;;;;;;9.13;2.80;;;20.00;99.90;;;;;;5042835;28;20040;-69
2022/08/26 07:39:56;;;;;;;11.65;2.85;;;20.00;99.90;;;;;;5047838;28;20045;-69
2022/08/26 07:42:22;;;;;;;15.70;2.80;;;20.10;99.90;;;;;;5018117;28;20340;-70
2022/08/26 07:44:48;;;;;;;7.40;2.47;;;20.00;99.90;;;;;;5039532;28;20033;-69
2022/08/26 07:47:14;;;;;;;9.15;2.22;;;20.10;99.90;;;;;;5043669;28;20039;-72
2022/08/26 07:49:40;;;;;;;8.85;2.42;;;20.10;99.90;;;;;;5061484;28;20115;-71
2022/08/26 07:52:08;;;;;;;11.23;2.92;;;20.20;99.90;;;;;;5043563;28;20068;-69
2022/08/26 07:54:36;;;;;;;9.80;3.00;;;20.20;99.90;;;;;;5045229;28;20056;-70
2022/08/26 07:57:02;;;;;;;12.07;2.40;;;20.10;99.90;;;;;;5058837;28;20260;-71
2022/08/26 07:59:28;;;;;;;7.53;2.30;;;20.30;99.90;;;;;;5043901;28;20041;-69
2022/08/26 08:01:55;;;;;;;16.52;2.60;;;20.30;99.90;;;;;;5045909;28;20041;-69
2022/08/26 08:04:20;;;;;;;18.48;2.80;;;20.20;99.90;;;;;;5045290;28;20082;-68
2022/08/26 08:06:46;;;;;;;10.38;2.58;;;20.30;99.90;;;;;;5045896;28;20064;-70
2022/08/26 08:09:13;;;;;;;7.55;1.95;;;20.40;99.90;;;;;;5048030;28;20091;-69
2022/08/26 08:11:40;;;;;;;8.57;2.03;;;20.40;99.90;;;;;;5045274;28;20045;-69
2022/08/26 08:14:06;;;;;;;9.70;2.50;;;20.50;99.90;;;;;;5042235;28;20402;-68
2022/08/26 08:16:31;;;;;;;9.40;2.03;;;20.40;99.90;;;;;;5060277;28;20082;-68
2022/08/26 08:18:57;;;;;;;13.52;3.83;;;20.40;99.90;;;;;;5043145;28;20075;-68
2022/08/26 08:21:24;;;;;;;7.10;2.20;;;20.40;99.90;;;;;;5052271;28;20045;-69
2022/08/26 08:23:52;;;;;;;6.60;2.10;;;20.50;99.90;;;;;;5060232;28;20047;-70
2022/08/26 08:26:17;;;;;;;10.32;2.20;;;20.40;99.90;;;;;;5048503;28;20131;-68
2022/08/26 08:28:45;;;;;;;9.95;2.25;;;20.40;99.90;;;;;;5044496;28;20562;-70
2022/08/26 08:31:27;;;;;;;8.00;2.10;;;20.40;99.90;;;;;;5042086;28;20041;-70
2022/08/26 08:33:54;;;;;;;10.85;2.25;;;20.40;99.90;;;;;;5044465;28;20075;-69
2022/08/26 08:36:20;;;;;;;7.30;2.13;;;20.30;99.90;;;;;;5046110;28;20037;-69
2022/08/26 08:38:45;;;;;;;11.23;2.30;;;20.30;99.90;;;;;;5045460;28;20062;-69
2022/08/26 08:41:27;;;;;;;10.35;2.38;;;20.30;99.90;;;;;;5046023;28;20130;-68
2022/08/26 08:43:54;;;;;;;9.20;2.67;;;20.40;99.90;;;;;;5047624;28;20068;-69
2022/08/26 08:46:20;;;;;;;12.63;2.67;;;20.30;99.90;;;;;;5043541;28;20124;-69
2022/08/26 08:48:50;;;;;;;10.07;2.20;;;20.40;99.90;;;;;;5043929;28;20472;-70
2022/08/26 08:51:22;;;;;;;5.10;1.58;;;20.40;99.90;;;;;;5043528;28;20040;-70
2022/08/26 08:53:50;;;;;;;11.73;2.40;;;20.60;99.90;;;;;;5043995;28;20047;-69
2022/08/26 08:56:22;;;;;;;8.98;2.20;;;20.50;99.90;;;;;;5051061;28;20073;-70
2022/08/26 08:59:09;;;;;;;11.73;2.20;;;20.50;99.90;;;;;;5051433;28;20049;-69
2022/08/26 09:01:52;;;;;;;7.57;2.03;;;20.60;99.90;;;;;;5065756;28;20273;-69
2022/08/26 09:04:36;;;;;;;10.68;2.08;;;20.50;99.90;;;;;;5050628;28;20045;-68
2022/08/26 09:07:05;;;;;;;10.45;2.05;;;20.50;99.90;;;;;;5047713;28;20078;-69
2022/08/26 09:09:42;;;;;;;5.43;1.50;;;20.60;99.90;;;;;;5045367;28;20044;-68
2022/08/26 09:12:15;;;;;;;9.07;2.20;;;20.50;99.90;;;;;;5043380;28;20051;-69
2022/08/26 09:14:43;;;;;;;7.53;1.92;;;20.60;99.90;;;;;;5041653;28;20056;-68
2022/08/26 09:17:20;;;;;;;8.43;2.60;;;20.50;99.90;;;;;;5046419;28;20052;-69
2022/08/26 09:19:53;;;;;;;7.82;1.67;;;20.60;99.90;;;;;;5046105;28;20040;-70
2022/08/26 09:22:36;;;;;;;9.05;1.70;;;20.70;99.90;;;;;;5044142;28;20058;-72
2022/08/26 09:25:06;;;;;;;8.82;2.10;;;20.60;99.90;;;;;;5044375;28;20037;-69
2022/08/26 09:28:01;;;;;;;5.68;1.80;;;20.50;99.90;;;;;;5046477;28;20040;-69
2022/08/26 09:30:34;;;;;;;8.45;2.42;;;20.50;99.90;;;;;;5036213;28;20476;-69
2022/08/26 09:33:04;;;;;;;12.98;2.28;;;20.40;99.90;;;;;;5039911;28;20044;-70
2022/08/26 09:35:34;;;;;;;6.53;1.52;;;20.40;99.90;;;;;;5045127;28;20059;-71
2022/08/26 09:38:00;;;;;;;5.28;1.30;;;20.50;99.90;;;;;;5041473;28;20200;-70
2022/08/26 09:40:34;;;;;;;9.63;1.92;;;20.50;99.90;;;;;;5044211;28;20510;-68
2022/08/26 09:43:16;;;;;;;8.32;2.00;;;20.60;99.90;;;;;;5044047;28;20043;-69
2022/08/26 09:45:53;;;;;;;10.00;2.10;;;20.50;99.90;;;;;;5046963;28;21058;-68
2022/08/26 09:48:34;;;;;;;6.30;1.90;;;20.50;99.90;;;;;;5037505;28;20044;-69
2022/08/26 09:51:22;;;;;;;6.05;1.58;;;20.50;99.90;;;;;;5044441;28;20041;-68
2022/08/26 09:53:54;;;;;;;8.88;1.98;;;20.60;99.90;;;;;;5045209;28;20045;-68
2022/08/26 09:56:24;;;;;;;7.25;1.73;;;20.60;99.90;;;;;;5045375;28;20037;-68
2022/08/26 09:58:50;;;;;;;8.40;1.63;;;20.60;99.90;;;;;;5045943;28;20128;-68
2022/08/26 10:01:22;;;;;;;6.03;1.50;;;20.60;99.90;;;;;;5042512;28;20618;-70
2022/08/26 10:03:48;;;;;;;4.13;1.75;;;20.70;99.90;;;;;;5044149;28;20044;-69
2022/08/26 10:06:17;;;;;;;7.07;1.90;;;20.70;99.90;;;;;;5044924;28;20045;-68
2022/08/26 10:08:47;;;;;;;9.82;2.03;;;20.70;99.90;;;;;;5041173;28;20545;-69
2022/08/26 10:11:23;;;;;;;7.90;1.48;;;20.80;99.90;;;;;;5046292;28;20533;-68
2022/08/26 10:13:55;;;;;;;8.05;1.45;;;20.80;99.90;;;;;;5044409;28;20081;-68
2022/08/26 10:16:22;;;;;;;;;;;20.80;99.90;;;;;;5042323;28;20100;-70
2022/08/26 10:18:48;;;;;;;8.40;1.65;;;20.80;99.90;;;;;;5043069;28;20437;-67
2022/08/26 10:21:31;;;;;;;10.20;1.75;;;20.70;99.90;;;;;;5044131;28;20036;-68
2022/08/26 10:24:00;;;;;;;4.28;1.45;;;20.60;99.90;;;;;;5048504;28;20458;-68
2022/08/26 10:26:59;;;;;;;8.77;1.52;;;20.60;99.90;;;;;;5055183;28;20403;-69
2022/08/26 10:29:33;;;;;;;6.95;1.67;;;20.40;99.90;;;;;;5043010;28;20655;-69
2022/08/26 10:32:03;;;;;;;8.43;1.63;;;20.50;99.90;;;;;;5048035;28;20032;-70
2022/08/26 10:34:30;;;;;;;8.88;1.30;;;20.50;99.90;;;;;;5044672;28;20055;-70
2022/08/26 10:37:01;;;;;;;11.88;1.45;;;20.40;99.90;;;;;;5050767;28;20041;-70
2022/08/26 10:39:27;;;;;;;6.15;1.63;;;20.40;99.90;;;;;;5056380;28;20048;-70
2022/08/26 10:42:00;;;;;;;8.73;1.88;;;20.40;99.90;;;;;;5045100;28;20052;-69
2022/08/26 10:44:28;;;;;;;6.78;1.38;;;20.40;99.90;;;;;;5048275;28;20037;-69
2022/08/26 10:47:04;;;;;;;10.32;1.80;;;20.40;99.90;;;;;;5044352;28;20037;-68
2022/08/26 10:49:30;;;;;;;5.68;1.60;;;20.40;99.90;;;;;;5042612;28;20545;-71
2022/08/26 10:52:22;;;;;;;10.02;1.63;;;20.40;99.90;;;;;;5047556;28;20060;-69
2022/08/26 10:55:10;;;;;;;7.63;1.58;;;20.50;99.90;;;;;;5047986;28;20076;-69
2022/08/26 10:57:45;;;;;;;6.60;1.40;;;20.60;99.90;;;;;;5039744;28;20666;-69
2022/08/26 11:03:37;;;;;;;8.02;1.65;;;20.60;99.90;;;;;;5048003;28;20118;-69
2022/08/26 11:06:18;;;;;;;8.25;1.40;;;20.70;99.90;;;;;;5061563;28;20194;-68
2022/08/26 11:08:51;;;;;;;4.05;1.25;;;20.70;99.90;;;;;;5047343;28;20053;-69
2022/08/26 11:11:38;;;;;;;6.97;1.83;;;20.70;99.90;;;;;;5046653;28;20049;-68
2022/08/26 11:14:19;;;;;;;6.72;1.50;;;20.70;99.90;;;;;;5049296;28;20057;-69
2022/08/26 11:16:47;;;;;;;6.63;1.42;;;20.80;99.90;;;;;;5048575;28;20055;-68
2022/08/26 11:19:36;;;;;;;5.88;1.50;;;20.60;99.90;;;;;;5045465;28;20094;-69
2022/08/26 11:22:10;;;;;;;7.60;1.17;;;20.60;99.90;;;;;;5043212;28;20059;-69
2022/08/26 11:24:39;;;;;;;8.15;1.38;;;20.40;99.90;;;;;;5050201;28;20033;-70
2022/08/26 11:27:30;;;;;;;10.48;1.60;;;20.40;99.90;;;;;;5047680;28;20041;-70
2022/08/26 11:29:59;;;;;;;2.47;1.00;;;20.30;99.90;;;;;;5047831;28;20044;-70
2022/08/26 11:32:48;;;;;;;6.55;1.08;;;20.30;99.90;;;;;;5047543;28;20052;-69
2022/08/26 11:35:20;;;;;;;5.65;1.38;;;20.30;99.90;;;;;;5043793;28;20076;-69
2022/08/26 11:37:53;;;;;;;6.88;1.50;;;20.20;99.90;;;;;;5044068;28;20526;-69
2022/08/26 11:40:21;;;;;;;8.27;1.30;;;20.20;99.90;;;;;;5043894;28;20036;-68
2022/08/26 11:42:50;;;;;;;3.50;1.15;;;20.20;99.90;;;;;;5047274;28;20127;-68
2022/08/26 11:45:24;;;;;;;6.85;1.40;;;20.20;99.90;;;;;;5041027;28;20052;-69
2022/08/26 11:47:49;;;;;;;7.47;1.20;;;20.20;99.90;;;;;;5042550;28;20037;-68
2022/08/26 11:50:25;;;;;;;5.13;1.27;;;20.20;99.90;;;;;;5043344;28;20375;-68
2022/08/26 11:53:04;;;;;;;4.53;1.40;;;20.30;99.90;;;;;;5045183;28;20492;-69
2022/08/26 11:55:33;;;;;;;8.23;1.27;;;20.30;99.90;;;;;;5040627;28;20088;-69
2022/08/26 11:58:01;;;;;;;4.53;1.17;;;20.40;99.90;;;;;;5043131;28;20772;-70
2022/08/26 12:00:31;;;;;;;3.55;0.80;;;20.50;99.90;;;;;;5044566;28;20029;-70
2022/08/26 12:02:59;;;;;;;2.92;0.98;;;20.60;99.90;;;;;;5035959;28;20052;-71
2022/08/26 12:05:29;;;;;;;6.55;1.20;;;20.80;99.90;;;;;;5045955;28;20132;-69
2022/08/26 12:07:55;;;;;;;5.50;1.48;;;20.90;99.90;;;;;;5047452;28;20114;-68
2022/08/26 12:10:31;;;;;;;2.92;0.77;;;21.00;99.90;;;;;;5047505;28;20140;-75
2022/08/26 12:12:58;;;;;;;4.70;1.45;;;21.10;99.90;;;;;;5050392;28;20044;-68
2022/08/26 12:15:26;;;;;;;4.53;1.55;;;21.10;99.90;;;;;;5049026;28;20041;-69
2022/08/26 12:17:52;;;;;;;6.65;1.30;;;21.00;99.90;;;;;;5034795;28;20044;-70
2022/08/26 12:20:44;;;;;;;5.00;1.40;;;21.10;99.90;;;;;;5052063;28;20051;-71
2022/08/26 12:23:40;;;;;;;5.80;1.08;;;21.20;99.90;;;;;;5052027;28;20064;-70
2022/08/26 12:26:44;;;;;;;6.97;1.40;;;21.30;99.90;;;;;;5054691;28;20132;-71
2022/08/26 12:29:26;;;;;;;6.07;1.10;;;21.30;99.90;;;;;;5005969;28;20108;-70
2022/08/26 12:32:11;;;;;;;4.22;1.10;;;21.30;99.90;;;;;;5039950;28;20102;-71
2022/08/26 12:34:37;;;;;;;5.97;1.25;;;21.30;99.90;;;;;;5051229;28;20041;-70
2022/08/26 12:37:03;;;;;;;6.10;1.40;;;21.30;99.90;;;;;;5051995;28;20052;-70
2022/08/26 12:39:32;;;;;;;1.70;0.88;;;21.40;99.90;;;;;;5050684;28;20476;-70
2022/08/26 12:42:17;;;;;;;3.58;0.88;;;21.50;99.90;;;;;;5035101;28;20024;-69
2022/08/26 12:44:57;;;;;;;5.93;1.50;;;21.60;99.90;;;;;;5042218;28;20056;-69
2022/08/26 12:47:41;;;;;;;8.30;1.40;;;21.40;99.90;;;;;;5048199;28;20483;-71
2022/08/26 12:50:18;;;;;;;11.48;1.40;;;21.40;99.90;;;;;;5049619;28;20041;-68
2022/08/26 12:52:52;;;;;;;4.43;1.30;;;21.40;99.90;;;;;;5046610;28;20076;-71
2022/08/26 12:55:35;;;;;;;4.93;1.10;;;21.30;99.90;;;;;;5039377;28;20068;-66
2022/08/26 12:58:11;;;;;;;2.38;0.70;;;21.20;99.90;;;;;;5043927;28;20492;-68
2022/08/26 13:00:40;;;;;;;4.15;1.00;;;21.20;99.90;;;;;;5044718;28;20056;-68